createdAt,value
2023-01-12T00:00:43.131Z,6.20
2023-01-12T00:01:43.198Z,5.20
2023-01-12T00:02:43.116Z,6.40
2023-01-12T00:03:43.097Z,5.70
2023-01-12T00:04:43.027Z,6.40
2023-01-12T00:05:43.121Z,6.40
2023-01-12T00:06:43.038Z,5.70
2023-01-12T00:07:42.963Z,5.80
2023-01-12T00:08:42.966Z,6.30
2023-01-12T00:09:43.233Z,5.70
2023-01-12T00:10:42.937Z,5.70
2023-01-12T00:11:42.966Z,5.70
2023-01-12T00:12:42.957Z,6.00
2023-01-12T00:13:42.871Z,6.10
2023-01-12T00:14:42.899Z,6.50
2023-01-12T00:15:43.185Z,5.80
2023-01-12T00:16:42.986Z,6.10
2023-01-12T00:17:42.818Z,6.90
2023-01-12T00:18:42.842Z,5.90
2023-01-12T00:19:42.800Z,6.70
2023-01-12T00:20:42.810Z,6.30
2023-01-12T00:21:42.791Z,5.60
2023-01-12T00:22:42.789Z,6.40
2023-01-12T00:23:42.794Z,6.70
2023-01-12T00:24:42.737Z,6.50
2023-01-12T00:25:42.772Z,6.80
2023-01-12T00:26:42.725Z,6.00
2023-01-12T00:27:42.693Z,7.20
2023-01-12T00:28:42.682Z,6.60
2023-01-12T00:29:42.712Z,6.70
2023-01-12T00:30:42.676Z,6.10
2023-01-12T00:31:44.372Z,5.00
2023-01-12T00:32:42.786Z,7.10
2023-01-12T00:33:42.621Z,6.70
2023-01-12T00:34:42.827Z,5.80
2023-01-12T00:35:42.864Z,5.80
2023-01-12T00:36:42.614Z,5.80
2023-01-12T00:37:42.570Z,5.40
2023-01-12T00:38:42.945Z,5.50
2023-01-12T00:39:53.155Z,5.60
2023-01-12T00:40:43.584Z,6.10
2023-01-12T00:41:42.523Z,5.50
2023-01-12T00:42:42.505Z,5.60
2023-01-12T00:43:42.821Z,5.60
2023-01-12T00:44:42.491Z,6.40
2023-01-12T00:45:42.508Z,5.40
2023-01-12T00:46:42.484Z,5.00
2023-01-12T00:47:42.499Z,5.50
2023-01-12T00:48:42.453Z,4.90
2023-01-12T00:49:43.017Z,5.40
2023-01-12T00:50:42.435Z,5.20
2023-01-12T00:51:42.411Z,5.10
2023-01-12T00:52:42.377Z,5.20
2023-01-12T00:53:42.354Z,6.60
2023-01-12T00:54:42.478Z,5.60
2023-01-12T00:55:42.489Z,5.10
2023-01-12T00:56:42.410Z,5.00
2023-01-12T00:57:42.315Z,4.90
2023-01-12T00:58:42.419Z,5.50
2023-01-12T00:59:42.277Z,5.40
2023-01-12T01:00:42.283Z,5.80
2023-01-12T01:01:42.379Z,5.00
2023-01-12T01:02:42.625Z,4.80
2023-01-12T01:03:42.420Z,5.00
2023-01-12T01:04:42.271Z,5.30
2023-01-12T01:05:42.243Z,5.80
2023-01-12T01:06:42.221Z,5.70
2023-01-12T01:07:42.326Z,5.50
2023-01-12T01:08:42.196Z,5.40
2023-01-12T01:09:42.213Z,5.50
2023-01-12T01:10:42.224Z,4.90
2023-01-12T01:11:42.139Z,5.00
2023-01-12T01:12:42.264Z,5.60
2023-01-12T01:13:42.109Z,4.70
2023-01-12T01:14:42.241Z,5.80
2023-01-12T01:15:42.141Z,5.20
2023-01-12T01:16:42.135Z,5.60
2023-01-12T01:17:42.350Z,4.90
2023-01-12T01:18:42.067Z,5.40
2023-01-12T01:19:42.028Z,5.50
2023-01-12T01:20:42.049Z,5.10
2023-01-12T01:21:42.157Z,5.40
2023-01-12T01:22:42.014Z,5.00
2023-01-12T01:23:41.979Z,5.00
2023-01-12T01:24:42.002Z,5.40
2023-01-12T01:25:41.986Z,5.20
2023-01-12T01:26:41.940Z,4.60
2023-01-12T01:27:41.935Z,5.30
2023-01-12T01:28:42.139Z,5.00
2023-01-12T01:29:41.885Z,5.70
2023-01-12T01:30:42.060Z,5.80
2023-01-12T01:31:41.879Z,5.70
2023-01-12T01:32:41.865Z,4.80
2023-01-12T01:33:41.847Z,4.80
2023-01-12T01:34:41.975Z,5.00
2023-01-12T01:35:41.824Z,5.70
2023-01-12T01:36:41.853Z,5.70
2023-01-12T01:37:41.801Z,5.00
2023-01-12T01:38:41.785Z,5.30
2023-01-12T01:39:41.899Z,5.30
2023-01-12T01:40:41.801Z,5.60
2023-01-12T01:41:43.607Z,4.80
2023-01-12T01:42:41.731Z,4.70
2023-01-12T01:43:41.713Z,5.80
2023-01-12T01:44:41.915Z,5.40
2023-01-12T01:45:41.724Z,5.20
2023-01-12T01:46:41.756Z,6.80
2023-01-12T01:47:41.672Z,7.60
2023-01-12T01:48:41.696Z,6.60
2023-01-12T01:49:41.740Z,6.80
2023-01-12T01:50:41.639Z,6.10
2023-01-12T01:51:44.333Z,5.60
2023-01-12T01:52:41.632Z,5.20
2023-01-12T01:53:41.636Z,5.10
2023-01-12T01:54:41.609Z,6.20
2023-01-12T01:55:41.631Z,5.30
2023-01-12T01:56:41.593Z,5.30
2023-01-12T01:57:41.814Z,5.40
2023-01-12T01:58:41.516Z,5.30
2023-01-12T01:59:41.631Z,5.80
2023-01-12T02:00:41.529Z,5.20
2023-01-12T02:01:44.301Z,5.90
2023-01-12T02:02:41.520Z,5.40
2023-01-12T02:03:41.636Z,5.30
2023-01-12T02:04:41.476Z,5.30
2023-01-12T02:05:41.693Z,6.00
2023-01-12T02:06:41.436Z,5.40
2023-01-12T02:07:41.512Z,5.60
2023-01-12T02:08:41.501Z,5.20
2023-01-12T02:09:41.452Z,5.00
2023-01-12T02:10:41.594Z,4.90
2023-01-12T02:11:41.584Z,5.90
2023-01-12T02:12:41.331Z,5.40
2023-01-12T02:13:41.336Z,6.40
2023-01-12T02:14:41.339Z,4.80
2023-01-12T02:15:41.550Z,6.20
2023-01-12T02:16:41.289Z,5.40
2023-01-12T02:17:41.436Z,5.00
2023-01-12T02:18:41.267Z,5.60
2023-01-12T02:19:41.248Z,5.30
2023-01-12T02:20:41.242Z,5.00
2023-01-12T02:21:41.304Z,5.20
2023-01-12T02:22:41.203Z,6.10
2023-01-12T02:23:41.208Z,5.20
2023-01-12T02:24:41.430Z,5.50
2023-01-12T02:25:41.188Z,5.20
2023-01-12T02:26:41.253Z,6.10
2023-01-12T02:27:41.356Z,5.30
2023-01-12T02:28:41.128Z,5.80
2023-01-12T02:29:41.137Z,5.70
2023-01-12T02:30:41.143Z,5.90
2023-01-12T02:31:41.186Z,5.50
2023-01-12T02:32:41.150Z,6.30
2023-01-12T02:33:41.102Z,5.60
2023-01-12T02:34:41.093Z,5.60
2023-01-12T02:35:41.201Z,5.50
2023-01-12T02:36:41.067Z,5.30
2023-01-12T02:37:41.019Z,6.30
2023-01-12T02:38:41.020Z,5.50
2023-01-12T02:39:41.058Z,5.50
2023-01-12T02:40:40.976Z,6.80
2023-01-12T02:41:40.971Z,5.60
2023-01-12T02:42:40.974Z,6.60
2023-01-12T02:43:41.023Z,6.10
2023-01-12T02:44:40.944Z,6.40
2023-01-12T02:45:41.104Z,6.00
2023-01-12T02:46:40.968Z,6.40
2023-01-12T02:47:40.899Z,5.00
2023-01-12T02:48:40.845Z,5.40
2023-01-12T02:49:40.870Z,5.60
2023-01-12T02:50:40.846Z,5.30
2023-01-12T02:51:40.937Z,5.50
2023-01-12T02:52:40.821Z,5.20
2023-01-12T02:53:40.979Z,4.80
2023-01-12T02:54:40.879Z,5.40
2023-01-12T02:55:40.778Z,5.30
2023-01-12T02:56:40.824Z,5.30
2023-01-12T02:57:40.748Z,5.20
2023-01-12T02:58:40.809Z,5.60
2023-01-12T02:59:40.724Z,5.60
2023-01-12T03:00:40.756Z,5.30
2023-01-12T03:01:40.753Z,5.50
2023-01-12T03:02:40.779Z,5.20
2023-01-12T03:03:40.668Z,5.50
2023-01-12T03:04:40.651Z,4.60
2023-01-12T03:05:40.635Z,5.60
2023-01-12T03:06:40.927Z,6.50
2023-01-12T03:07:40.594Z,5.60
2023-01-12T03:08:40.594Z,5.40
2023-01-12T03:09:40.575Z,5.60
2023-01-12T03:10:40.642Z,5.70
2023-01-12T03:11:40.581Z,5.40
2023-01-12T03:12:40.545Z,5.50
2023-01-12T03:13:40.544Z,5.60
2023-01-12T03:14:40.516Z,5.40
2023-01-12T03:15:40.533Z,5.00
2023-01-12T03:16:40.527Z,5.30
2023-01-12T03:17:40.477Z,5.80
2023-01-12T03:18:40.483Z,5.30
2023-01-12T03:19:40.464Z,5.70
2023-01-12T03:20:40.463Z,5.50
2023-01-12T03:21:40.454Z,6.20
2023-01-12T03:22:40.407Z,6.80
2023-01-12T03:23:40.391Z,6.40
2023-01-12T03:24:40.575Z,5.40
2023-01-12T03:25:40.396Z,5.70
2023-01-12T03:26:40.377Z,6.90
2023-01-12T03:27:40.359Z,5.40
2023-01-12T03:28:40.377Z,6.20
2023-01-12T03:29:40.319Z,5.90
2023-01-12T03:30:40.304Z,5.60
2023-01-12T03:31:40.327Z,5.90
2023-01-12T03:32:40.286Z,5.20
2023-01-12T03:33:40.281Z,5.50
2023-01-12T03:34:40.500Z,5.50
2023-01-12T03:35:40.286Z,5.70
2023-01-12T03:36:40.289Z,5.60
2023-01-12T03:37:40.241Z,5.90
2023-01-12T03:38:40.220Z,5.40
2023-01-12T03:39:40.177Z,5.30
2023-01-12T03:40:40.179Z,5.70
2023-01-12T03:41:40.158Z,5.30
2023-01-12T03:42:44.139Z,5.10
2023-01-12T03:43:40.121Z,6.40
2023-01-12T03:44:40.119Z,5.40
2023-01-12T03:45:40.119Z,5.20
2023-01-12T03:46:40.439Z,5.30
2023-01-12T03:47:40.092Z,5.50
2023-01-12T03:48:40.066Z,5.60
2023-01-12T03:49:40.290Z,5.20
2023-01-12T03:50:40.040Z,5.50
2023-01-12T03:51:40.044Z,5.20
2023-01-12T03:52:40.154Z,5.40
2023-01-12T03:53:40.010Z,5.10
2023-01-12T03:54:40.026Z,5.70
2023-01-12T03:55:39.971Z,5.20
2023-01-12T03:56:39.989Z,5.90
2023-01-12T03:57:39.927Z,5.90
2023-01-12T03:58:39.948Z,5.40
2023-01-12T03:59:39.907Z,5.50
2023-01-12T04:00:40.108Z,5.80
2023-01-12T04:01:40.252Z,5.00
2023-01-12T04:02:39.896Z,5.10
2023-01-12T04:03:39.943Z,5.20
2023-01-12T04:04:39.860Z,5.50
2023-01-12T04:05:39.857Z,5.20
2023-01-12T04:06:39.824Z,5.20
2023-01-12T04:07:39.825Z,5.60
2023-01-12T04:08:39.799Z,5.00
2023-01-12T04:09:39.773Z,5.20
2023-01-12T04:10:39.780Z,5.60
2023-01-12T04:11:39.753Z,5.60
2023-01-12T04:12:39.831Z,5.90
2023-01-12T04:13:39.753Z,4.90
2023-01-12T04:14:39.753Z,5.90
2023-01-12T04:15:39.693Z,6.50
2023-01-12T04:16:39.738Z,5.80
2023-01-12T04:17:39.683Z,5.20
2023-01-12T04:18:39.922Z,5.50
2023-01-12T04:19:39.777Z,7.50
2023-01-12T04:20:39.650Z,6.00
2023-01-12T04:21:39.852Z,5.20
2023-01-12T04:22:39.647Z,6.10
2023-01-12T04:23:39.760Z,5.80
2023-01-12T04:24:39.583Z,5.90
2023-01-12T04:25:39.575Z,5.10
2023-01-12T04:26:39.610Z,5.60
2023-01-12T04:27:39.532Z,5.90
2023-01-12T04:28:39.555Z,6.00
2023-01-12T04:29:39.538Z,6.20
2023-01-12T04:30:39.548Z,5.90
2023-01-12T04:31:39.560Z,5.70
2023-01-12T04:32:39.484Z,6.20
2023-01-12T04:33:39.438Z,5.90
2023-01-12T04:34:39.497Z,5.30
2023-01-12T04:35:39.444Z,5.40
2023-01-12T04:36:41.832Z,6.10
2023-01-12T04:37:39.412Z,4.90
2023-01-12T04:38:39.423Z,6.50
2023-01-12T04:39:39.484Z,6.20
2023-01-12T04:40:39.908Z,6.00
2023-01-12T04:41:39.376Z,5.70
2023-01-12T04:42:39.388Z,6.40
2023-01-12T04:43:39.490Z,5.70
2023-01-12T04:44:39.324Z,5.50
2023-01-12T04:45:39.348Z,5.60
2023-01-12T04:46:39.310Z,6.00
2023-01-12T04:47:39.389Z,6.00
2023-01-12T04:48:39.290Z,6.40
2023-01-12T04:49:39.309Z,6.00
2023-01-12T04:50:39.455Z,5.50
2023-01-12T04:51:39.227Z,5.90
2023-01-12T04:52:39.209Z,5.60
2023-01-12T04:53:39.266Z,6.60
2023-01-12T04:54:39.185Z,5.70
2023-01-12T04:55:39.203Z,5.80
2023-01-12T04:56:39.168Z,6.40
2023-01-12T04:57:39.463Z,5.80
2023-01-12T04:58:39.117Z,6.10
2023-01-12T04:59:39.125Z,5.20
2023-01-12T05:00:39.104Z,5.90
2023-01-12T05:01:39.438Z,5.60
2023-01-12T05:02:39.076Z,6.10
2023-01-12T05:03:39.052Z,6.30
2023-01-12T05:04:39.276Z,6.30
2023-01-12T05:05:39.060Z,6.00
2023-01-12T05:06:39.067Z,6.10
2023-01-12T05:07:38.999Z,5.60
2023-01-12T05:08:39.005Z,6.40
2023-01-12T05:09:38.988Z,6.30
2023-01-12T05:10:38.962Z,5.50
2023-01-12T05:11:38.988Z,5.30
2023-01-12T05:12:38.972Z,5.70
2023-01-12T05:13:38.945Z,5.90
2023-01-12T05:14:38.959Z,6.20
2023-01-12T05:15:39.643Z,6.10
2023-01-12T05:16:38.933Z,6.00
2023-01-12T05:17:38.870Z,6.30
2023-01-12T05:18:38.960Z,6.00
2023-01-12T05:19:38.859Z,6.30
2023-01-12T05:20:38.857Z,6.40
2023-01-12T05:21:38.848Z,5.30
2023-01-12T05:22:38.796Z,5.10
2023-01-12T05:23:38.789Z,5.90
2023-01-12T05:24:38.844Z,6.10
2023-01-12T05:25:38.767Z,6.20
2023-01-12T05:26:38.775Z,5.50
2023-01-12T05:27:38.736Z,5.60
2023-01-12T05:28:38.821Z,5.80
2023-01-12T05:29:38.713Z,5.00
2023-01-12T05:30:38.874Z,5.40
2023-01-12T05:31:38.698Z,5.40
2023-01-12T05:32:38.677Z,5.20
2023-01-12T05:33:38.665Z,5.20
2023-01-12T05:34:39.263Z,5.70
2023-01-12T05:35:38.697Z,5.80
2023-01-12T05:36:38.626Z,5.70
2023-01-12T05:37:38.634Z,5.30
2023-01-12T05:38:38.624Z,4.80
2023-01-12T05:39:38.587Z,5.50
2023-01-12T05:40:38.560Z,6.10
2023-01-12T05:41:38.666Z,5.10
2023-01-12T05:42:38.593Z,5.20
2023-01-12T05:43:38.536Z,5.00
2023-01-12T05:44:38.602Z,5.60
2023-01-12T05:45:38.534Z,5.60
2023-01-12T05:46:38.662Z,5.70
2023-01-12T05:47:38.496Z,5.60
2023-01-12T05:48:38.484Z,5.40
2023-01-12T05:49:38.503Z,5.00
2023-01-12T05:50:38.446Z,5.60
2023-01-12T05:51:38.435Z,7.00
2023-01-12T05:52:38.433Z,5.80
2023-01-12T05:53:38.553Z,5.60
2023-01-12T05:54:38.400Z,5.80
2023-01-12T05:55:38.386Z,5.30
2023-01-12T05:56:38.496Z,5.10
2023-01-12T05:57:38.338Z,5.50
2023-01-12T05:58:38.448Z,5.70
2023-01-12T05:59:38.312Z,6.10
2023-01-12T06:00:38.342Z,5.30
2023-01-12T06:01:38.301Z,5.90
2023-01-12T06:02:38.299Z,5.90
2023-01-12T06:03:38.355Z,5.60
2023-01-12T06:04:38.538Z,5.00
2023-01-12T06:05:38.224Z,5.30
2023-01-12T06:06:38.287Z,4.80
2023-01-12T06:07:38.217Z,4.90
2023-01-12T06:08:38.339Z,4.50
2023-01-12T06:09:38.207Z,5.90
2023-01-12T06:10:38.845Z,5.10
2023-01-12T06:11:43.703Z,5.40
2023-01-12T06:16:26.917Z,5.50
2023-01-12T06:16:33.112Z,5.40
2023-01-12T06:17:32.090Z,5.10
2023-01-12T06:18:31.916Z,5.20
2023-01-12T06:19:32.120Z,5.20
2023-01-12T06:20:31.908Z,4.80
2023-01-12T06:21:31.873Z,4.60
2023-01-12T06:22:31.992Z,5.40
2023-01-12T06:23:34.916Z,5.00
2023-01-12T06:24:31.852Z,4.50
2023-01-12T06:25:31.831Z,5.00
2023-01-12T06:26:31.824Z,4.90
2023-01-12T06:27:31.789Z,4.90
2023-01-12T06:28:31.762Z,5.00
2023-01-12T06:29:31.757Z,5.40
2023-01-12T06:30:32.069Z,5.50
2023-01-12T06:31:31.789Z,5.40
2023-01-12T06:32:33.524Z,5.10
2023-01-12T06:33:31.703Z,4.90
2023-01-12T06:34:31.730Z,5.40
2023-01-12T06:35:31.681Z,4.60
2023-01-12T06:36:31.686Z,4.60
2023-01-12T06:37:31.653Z,5.10
2023-01-12T06:38:31.627Z,5.10
2023-01-12T06:39:31.642Z,4.90
2023-01-12T06:40:31.630Z,4.90
2023-01-12T06:41:31.623Z,4.90
2023-01-12T06:42:31.591Z,5.10
2023-01-12T06:43:31.556Z,5.50
2023-01-12T06:44:31.679Z,4.50
2023-01-12T06:45:31.553Z,4.20
2023-01-12T06:46:31.581Z,5.00
2023-01-12T06:47:31.511Z,4.80
2023-01-12T06:48:38.826Z,4.50
2023-01-12T06:49:32.572Z,5.40
2023-01-12T06:50:31.506Z,5.40
2023-01-12T06:51:31.534Z,4.50
2023-01-12T06:52:31.471Z,5.10
2023-01-12T06:53:31.492Z,5.10
2023-01-12T06:54:31.438Z,5.00
2023-01-12T06:55:31.411Z,4.90
2023-01-12T06:56:31.609Z,4.50
2023-01-12T06:57:31.406Z,5.30
2023-01-12T06:58:31.403Z,4.70
2023-01-12T06:59:31.346Z,4.60
2023-01-12T07:00:31.480Z,4.80
2023-01-12T07:01:31.432Z,5.10
2023-01-12T07:02:31.398Z,5.70
2023-01-12T07:03:31.315Z,5.60
2023-01-12T07:04:31.333Z,4.80
2023-01-12T07:05:31.283Z,5.30
2023-01-12T07:06:31.265Z,5.20
2023-01-12T07:07:31.274Z,4.90
2023-01-12T07:08:31.237Z,5.30
2023-01-12T07:09:31.263Z,5.30
2023-01-12T07:10:31.210Z,5.10
2023-01-12T07:11:31.199Z,4.70
2023-01-12T07:12:31.180Z,4.80
2023-01-12T07:13:31.446Z,4.90
2023-01-12T07:14:31.138Z,4.90
2023-01-12T07:15:31.143Z,4.90
2023-01-12T07:16:31.127Z,5.30
2023-01-12T07:17:31.113Z,5.10
2023-01-12T07:18:31.268Z,4.60
2023-01-12T07:19:31.097Z,5.30
2023-01-12T07:20:31.081Z,5.00
2023-01-12T07:21:31.071Z,5.40
2023-01-12T07:22:31.047Z,5.30
2023-01-12T07:23:31.057Z,5.80
2023-01-12T07:24:31.019Z,5.30
2023-01-12T07:25:31.011Z,6.00
2023-01-12T07:26:30.994Z,5.30
2023-01-12T07:27:30.958Z,5.30
2023-01-12T07:28:30.976Z,5.20
2023-01-12T07:29:30.941Z,4.50
2023-01-12T07:30:30.958Z,5.40
2023-01-12T07:31:30.998Z,5.30
2023-01-12T07:32:30.937Z,5.30
2023-01-12T07:33:30.914Z,4.60
2023-01-12T07:34:30.874Z,6.00
2023-01-12T07:35:30.872Z,5.70
2023-01-12T07:36:30.880Z,5.20
2023-01-12T07:37:30.839Z,5.50
2023-01-12T07:38:30.872Z,5.80
2023-01-12T07:39:30.873Z,5.90
2023-01-12T07:40:30.804Z,5.40
2023-01-12T07:41:30.797Z,5.10
2023-01-12T07:42:30.783Z,5.60
2023-01-12T07:43:30.776Z,5.20
2023-01-12T07:44:30.746Z,5.20
2023-01-12T07:45:30.736Z,6.00
2023-01-12T07:46:30.842Z,5.80
2023-01-12T07:47:30.715Z,5.80
2023-01-12T07:48:30.730Z,5.40
2023-01-12T07:49:30.710Z,5.50
2023-01-12T07:50:30.668Z,5.60
2023-01-12T07:51:30.968Z,5.10
2023-01-12T07:52:30.681Z,4.90
2023-01-12T07:53:30.667Z,5.80
2023-01-12T07:54:30.627Z,6.10
2023-01-12T07:55:30.594Z,5.60
2023-01-12T07:56:30.801Z,5.50
2023-01-12T07:57:30.583Z,6.20
2023-01-12T07:58:30.682Z,5.30
2023-01-12T07:59:30.553Z,5.40
2023-01-12T08:00:30.527Z,5.50
2023-01-12T08:01:30.680Z,5.50
2023-01-12T08:02:30.597Z,5.40
2023-01-12T08:03:30.505Z,5.30
2023-01-12T08:04:30.532Z,5.10
2023-01-12T08:05:30.491Z,5.70
2023-01-12T08:06:30.468Z,5.70
2023-01-12T08:07:30.461Z,5.90
2023-01-12T08:08:30.475Z,4.80
2023-01-12T08:09:30.544Z,5.50
2023-01-12T08:10:30.399Z,5.00
2023-01-12T08:11:30.699Z,5.20
2023-01-12T08:12:30.415Z,5.40
2023-01-12T08:13:30.397Z,6.60
2023-01-12T08:14:30.415Z,5.70
2023-01-12T08:15:30.451Z,5.30
2023-01-12T08:16:30.380Z,5.30
2023-01-12T08:17:30.331Z,5.30
2023-01-12T08:18:30.317Z,4.90
2023-01-12T08:19:30.297Z,5.30
2023-01-12T08:20:30.559Z,5.80
2023-01-12T08:21:30.332Z,5.80
2023-01-12T08:22:30.268Z,5.40
2023-01-12T08:23:30.249Z,5.70
2023-01-12T08:24:30.211Z,6.60
2023-01-12T08:25:30.192Z,5.20
2023-01-12T08:26:30.200Z,5.50
2023-01-12T08:27:30.178Z,6.20
2023-01-12T08:28:30.176Z,5.80
2023-01-12T08:29:30.134Z,5.70
2023-01-12T08:30:30.143Z,5.20
2023-01-12T08:31:30.168Z,4.70
2023-01-12T08:32:30.423Z,6.00
2023-01-12T08:33:30.134Z,5.40
2023-01-12T08:34:30.126Z,4.50
2023-01-12T08:35:30.243Z,4.60
2023-01-12T08:36:30.075Z,5.70
2023-01-12T08:37:30.265Z,5.00
2023-01-12T08:38:30.064Z,5.20
2023-01-12T08:39:30.042Z,5.40
2023-01-12T08:40:30.034Z,5.10
2023-01-12T08:41:30.214Z,6.30
2023-01-12T08:42:31.804Z,5.40
2023-01-12T08:43:29.977Z,5.60
2023-01-12T08:44:29.943Z,5.60
2023-01-12T08:45:29.989Z,5.40
2023-01-12T08:46:29.934Z,5.50
2023-01-12T08:47:29.906Z,5.50
2023-01-12T08:48:29.929Z,5.40
2023-01-12T08:49:29.860Z,5.30
2023-01-12T08:50:29.872Z,6.30
2023-01-12T08:51:29.904Z,4.60
2023-01-12T08:52:29.859Z,5.50
2023-01-12T08:53:29.887Z,5.10
2023-01-12T08:54:29.861Z,5.50
2023-01-12T08:55:29.784Z,5.00
2023-01-12T08:56:29.775Z,4.40
2023-01-12T08:57:29.857Z,4.90
2023-01-12T08:58:29.811Z,6.20
2023-01-12T08:59:29.761Z,4.80
2023-01-12T09:00:29.907Z,5.00
2023-01-12T09:01:30.030Z,5.40
2023-01-12T09:02:29.763Z,4.90
2023-01-12T09:03:29.818Z,5.50
2023-01-12T09:04:30.650Z,5.10
2023-01-12T09:05:29.702Z,5.10
2023-01-12T09:06:29.724Z,5.50
2023-01-12T09:07:29.925Z,5.20
2023-01-12T09:08:29.643Z,6.30
2023-01-12T09:09:29.643Z,4.80
2023-01-12T09:10:29.643Z,5.40
2023-01-12T09:11:29.637Z,5.40
2023-01-12T09:12:29.599Z,6.50
2023-01-12T09:13:29.745Z,5.30
2023-01-12T09:14:29.611Z,5.70
2023-01-12T09:15:29.634Z,5.60
2023-01-12T09:16:29.637Z,4.80
2023-01-12T09:17:29.546Z,5.10
2023-01-12T09:18:29.510Z,5.30
2023-01-12T09:19:29.529Z,5.40
2023-01-12T09:20:29.567Z,6.10
2023-01-12T09:21:29.455Z,5.60
2023-01-12T09:22:29.579Z,5.90
2023-01-12T09:23:29.460Z,4.90
2023-01-12T09:24:29.435Z,5.50
2023-01-12T09:25:29.417Z,5.00
2023-01-12T09:26:29.391Z,5.80
2023-01-12T09:27:29.388Z,5.00
2023-01-12T09:28:29.360Z,5.10
2023-01-12T09:29:29.611Z,4.80
2023-01-12T09:30:29.378Z,5.40
2023-01-12T09:31:29.474Z,4.90
2023-01-12T09:32:36.444Z,5.00
2023-01-12T09:33:30.318Z,4.70
2023-01-12T09:34:29.387Z,4.70
2023-01-12T09:35:29.265Z,4.70
2023-01-12T09:36:29.295Z,5.30
2023-01-12T09:37:29.231Z,5.40
2023-01-12T09:38:29.230Z,7.00
2023-01-12T09:39:29.258Z,6.60
2023-01-12T09:40:29.201Z,5.20
2023-01-12T09:41:29.177Z,5.30
2023-01-12T09:42:29.175Z,5.50
2023-01-12T09:43:29.165Z,5.00
2023-01-12T09:44:29.154Z,5.20
2023-01-12T09:45:29.224Z,4.90
2023-01-12T09:46:29.122Z,6.80
2023-01-12T09:47:29.150Z,8.30
2023-01-12T09:48:29.152Z,9.30
2023-01-12T09:49:29.076Z,9.10
2023-01-12T09:50:29.106Z,8.90
2023-01-12T09:51:29.090Z,7.20
2023-01-12T09:52:29.110Z,5.90
2023-01-12T09:53:29.161Z,4.70
2023-01-12T09:54:29.077Z,5.90
2023-01-12T09:55:29.001Z,6.40
2023-01-12T09:56:29.066Z,6.00
2023-01-12T09:57:29.437Z,5.20
2023-01-12T09:58:29.013Z,5.20
2023-01-12T09:59:28.978Z,4.90
2023-01-12T10:00:28.987Z,4.60
2023-01-12T10:01:30.201Z,5.00
2023-01-12T10:02:29.067Z,4.90
2023-01-12T10:03:29.061Z,5.80
2023-01-12T10:04:28.885Z,5.10
2023-01-12T10:05:38.813Z,5.80
2023-01-12T10:06:29.844Z,5.40
2023-01-12T10:07:28.852Z,5.30
2023-01-12T10:08:29.114Z,5.00
2023-01-12T10:09:28.829Z,4.90
2023-01-12T10:10:28.884Z,4.90
2023-01-12T10:11:28.851Z,5.30
2023-01-12T10:12:30.756Z,4.90
2023-01-12T10:13:28.883Z,4.80
2023-01-12T10:14:28.775Z,4.50
2023-01-12T10:15:28.755Z,4.60
2023-01-12T10:16:28.810Z,4.70
2023-01-12T10:17:30.031Z,4.40
2023-01-12T10:18:28.742Z,4.70
2023-01-12T10:19:28.700Z,4.60
2023-01-12T10:20:28.683Z,4.50
2023-01-12T10:21:28.902Z,4.30
2023-01-12T10:22:28.642Z,4.20
2023-01-12T10:23:28.682Z,4.70
2023-01-12T10:24:28.624Z,4.70
2023-01-12T10:25:28.628Z,4.30
2023-01-12T10:26:28.602Z,4.30
2023-01-12T10:27:28.585Z,4.40
2023-01-12T10:28:28.683Z,4.30
2023-01-12T10:29:28.542Z,4.30
2023-01-12T10:30:28.585Z,4.70
2023-01-12T10:31:28.560Z,4.00
2023-01-12T10:32:31.326Z,3.80
2023-01-12T10:33:29.835Z,3.80
2023-01-12T10:34:28.492Z,3.60
2023-01-12T10:35:28.467Z,3.60
2023-01-12T10:36:28.490Z,3.90
2023-01-12T10:37:28.478Z,4.30
2023-01-12T10:38:28.642Z,4.60
2023-01-12T10:39:28.445Z,3.40
2023-01-12T10:40:29.109Z,3.40
2023-01-12T10:41:28.423Z,4.80
2023-01-12T10:42:28.395Z,4.10
2023-01-12T10:43:28.367Z,4.00
2023-01-12T10:44:28.384Z,3.70
2023-01-12T10:45:28.567Z,4.10
2023-01-12T10:46:28.354Z,3.60
2023-01-12T10:47:28.324Z,3.50
2023-01-12T10:48:28.461Z,3.80
2023-01-12T10:49:28.356Z,3.40
2023-01-12T10:50:28.795Z,3.90
2023-01-12T10:51:28.295Z,3.40
2023-01-12T10:52:28.300Z,3.30
2023-01-12T10:53:28.287Z,3.10
2023-01-12T10:54:28.346Z,2.70
2023-01-12T10:55:28.203Z,3.00
2023-01-12T10:56:28.199Z,2.80
2023-01-12T10:57:28.571Z,3.30
2023-01-12T10:58:28.259Z,2.90
2023-01-12T10:59:28.160Z,3.60
2023-01-12T11:00:28.241Z,3.20
2023-01-12T11:01:29.365Z,3.20
2023-01-12T11:02:28.292Z,3.30
2023-01-12T11:03:28.277Z,2.60
2023-01-12T11:04:28.172Z,2.70
2023-01-12T11:05:28.151Z,2.90
2023-01-12T11:06:28.092Z,3.10
2023-01-12T11:07:28.046Z,2.90
2023-01-12T11:08:28.110Z,3.40
2023-01-12T11:09:28.024Z,2.90
2023-01-12T11:10:28.054Z,2.90
2023-01-12T11:11:28.167Z,2.40
2023-01-12T11:12:29.719Z,2.60
2023-01-12T11:13:28.029Z,2.40
2023-01-12T11:14:27.960Z,2.40
2023-01-12T11:15:28.295Z,2.90
2023-01-12T11:16:27.971Z,2.60
2023-01-12T11:17:27.978Z,2.70
2023-01-12T11:18:30.685Z,2.40
2023-01-12T11:19:27.891Z,2.80
2023-01-12T11:20:27.890Z,2.50
2023-01-12T11:21:27.888Z,2.20
2023-01-12T11:22:27.861Z,2.60
2023-01-12T11:23:27.867Z,2.30
2023-01-12T11:24:27.836Z,2.60
2023-01-12T11:25:27.840Z,2.40
2023-01-12T11:26:27.826Z,2.30
2023-01-12T11:27:27.789Z,2.00
2023-01-12T11:28:27.875Z,2.60
2023-01-12T11:29:27.789Z,2.30
2023-01-12T11:30:27.779Z,2.50
2023-01-12T11:31:27.736Z,2.40
2023-01-12T11:32:27.740Z,2.60
2023-01-12T11:33:27.748Z,2.30
2023-01-12T11:34:27.725Z,2.10
2023-01-12T11:35:27.718Z,2.20
2023-01-12T11:36:27.690Z,2.20
2023-01-12T11:37:27.830Z,2.30
2023-01-12T11:38:27.736Z,2.50
2023-01-12T11:39:27.771Z,2.40
2023-01-12T11:40:27.624Z,2.40
2023-01-12T11:41:27.678Z,2.50
2023-01-12T11:42:27.639Z,2.40
2023-01-12T11:43:27.639Z,2.30
2023-01-12T11:44:27.636Z,2.20
2023-01-12T11:45:27.638Z,2.10
2023-01-12T11:46:27.595Z,2.20
2023-01-12T11:47:27.836Z,2.30
2023-01-12T11:48:27.515Z,1.90
2023-01-12T11:49:27.601Z,2.20
2023-01-12T11:50:27.534Z,2.20
2023-01-12T11:51:27.476Z,2.10
2023-01-12T11:52:27.458Z,2.10
2023-01-12T11:53:27.607Z,2.50
2023-01-12T11:54:27.511Z,1.90
2023-01-12T11:55:27.429Z,2.10
2023-01-12T11:56:27.450Z,1.90
2023-01-12T11:57:27.443Z,2.00
2023-01-12T11:58:27.404Z,1.80
2023-01-12T11:59:27.420Z,2.00
2023-01-12T12:00:27.411Z,1.90
2023-01-12T12:01:27.506Z,2.20
2023-01-12T12:02:27.451Z,2.50
2023-01-12T12:03:27.345Z,4.00
2023-01-12T12:04:27.344Z,10.20
2023-01-12T12:05:27.606Z,8.60
2023-01-12T12:06:27.361Z,50.00
2023-01-12T12:07:27.307Z,54.00
2023-01-12T12:08:27.458Z,25.10
2023-01-12T12:09:27.280Z,29.60
2023-01-12T12:10:27.260Z,14.30
2023-01-12T12:11:27.328Z,13.50
2023-01-12T12:12:27.210Z,8.40
2023-01-12T12:13:27.231Z,8.60
2023-01-12T12:14:27.265Z,7.80
2023-01-12T12:15:27.171Z,4.40
2023-01-12T12:16:27.195Z,3.30
2023-01-12T12:17:27.241Z,3.30
2023-01-12T12:18:27.154Z,2.80
2023-01-12T12:19:27.299Z,2.40
2023-01-12T12:20:27.250Z,3.00
2023-01-12T12:21:27.101Z,2.50
2023-01-12T12:22:27.121Z,2.40
2023-01-12T12:23:27.156Z,2.50
2023-01-12T12:24:27.037Z,2.40
2023-01-12T12:25:27.087Z,2.50
2023-01-12T12:26:27.105Z,2.30
2023-01-12T12:27:27.047Z,2.50
2023-01-12T12:28:26.995Z,2.10
2023-01-12T12:29:27.049Z,2.00
2023-01-12T12:30:26.982Z,1.90
2023-01-12T12:31:26.980Z,2.10
2023-01-12T12:32:27.222Z,2.20
2023-01-12T12:33:27.086Z,2.10
2023-01-12T12:34:26.966Z,3.00
2023-01-12T12:35:27.199Z,2.30
2023-01-12T12:36:26.925Z,2.40
2023-01-12T12:37:27.117Z,2.00
2023-01-12T12:38:26.947Z,1.90
2023-01-12T12:39:26.923Z,1.90
2023-01-12T12:40:26.834Z,2.00
2023-01-12T12:41:26.873Z,1.80
2023-01-12T12:42:26.810Z,2.00
2023-01-12T12:43:26.907Z,2.10
2023-01-12T12:44:26.780Z,1.80
2023-01-12T12:45:26.884Z,1.90
2023-01-12T12:46:26.846Z,2.20
2023-01-12T12:47:26.789Z,1.90
2023-01-12T12:48:26.744Z,2.00
2023-01-12T12:49:26.720Z,2.10
2023-01-12T12:50:26.778Z,2.10
2023-01-12T12:51:26.741Z,2.00
2023-01-12T12:52:26.875Z,2.50
2023-01-12T12:53:26.755Z,1.80
2023-01-12T12:54:26.715Z,1.80
2023-01-12T12:55:26.644Z,2.10
2023-01-12T12:56:26.724Z,2.00
2023-01-12T12:57:26.661Z,1.80
2023-01-12T12:58:26.637Z,1.80
2023-01-12T12:59:26.594Z,2.00
2023-01-12T13:00:26.690Z,1.90
2023-01-12T13:01:26.765Z,1.70
2023-01-12T13:02:26.767Z,1.80
2023-01-12T13:03:26.538Z,2.40
2023-01-12T13:04:26.516Z,1.90
2023-01-12T13:05:26.496Z,1.70
2023-01-12T13:06:26.496Z,1.90
2023-01-12T13:07:26.503Z,1.70
2023-01-12T13:08:26.468Z,1.90
2023-01-12T13:09:26.512Z,1.80
2023-01-12T13:10:26.475Z,1.60
2023-01-12T13:11:26.437Z,1.80
2023-01-12T13:12:26.436Z,1.80
2023-01-12T13:13:26.439Z,1.90
2023-01-12T13:14:26.377Z,1.90
2023-01-12T13:15:26.412Z,1.90
2023-01-12T13:16:26.519Z,2.10
2023-01-12T13:17:26.350Z,1.60
2023-01-12T13:18:26.428Z,1.90
2023-01-12T13:19:26.429Z,2.10
2023-01-12T13:20:26.562Z,1.60
2023-01-12T13:21:26.328Z,1.70